createdAt,value
2019-05-01T00:01:28.257Z,49.83
2019-05-01T00:06:34.584Z,49.29
2019-05-01T00:11:39.236Z,50.00
2019-05-01T00:16:45.304Z,49.41
2019-05-01T00:21:49.907Z,49.13
2019-05-01T00:26:55.968Z,49.78
2019-05-01T00:32:00.674Z,49.20
2019-05-01T00:37:06.359Z,48.99
2019-05-01T00:42:12.462Z,49.23
2019-05-01T00:47:16.974Z,49.51
2019-05-01T00:52:21.511Z,49.76
2019-05-01T00:57:27.701Z,48.80
2019-05-01T01:02:36.774Z,48.55
2019-05-01T01:07:41.401Z,47.87
2019-05-01T01:12:46.032Z,47.41
2019-05-01T01:17:50.615Z,47.69
2019-05-01T01:22:55.265Z,47.01
2019-05-01T01:27:59.893Z,46.43
2019-05-01T01:33:05.599Z,46.75
2019-05-01T01:38:10.303Z,46.43
2019-05-01T01:43:34.601Z,46.57
2019-05-01T01:48:39.379Z,46.47
2019-05-01T01:53:44.177Z,47.48
2019-05-01T01:58:48.995Z,47.62
2019-05-01T02:03:55.272Z,48.03
2019-05-01T02:08:59.998Z,48.60
2019-05-01T02:14:04.735Z,48.70
2019-05-01T02:19:09.374Z,48.75
2019-05-01T02:24:13.962Z,48.51
2019-05-01T02:29:23.350Z,48.93
2019-05-01T02:34:29.283Z,48.68
2019-05-01T02:39:35.408Z,48.75
2019-05-01T02:44:48.641Z,48.94
2019-05-01T02:49:55.860Z,49.14
2019-05-01T02:55:04.554Z,50.15
2019-05-01T03:00:09.622Z,50.29
2019-05-01T03:05:14.428Z,50.67
2019-05-01T03:10:19.581Z,50.32
2019-05-01T03:15:25.957Z,50.76
2019-05-01T03:20:36.067Z,50.52
2019-05-01T03:25:40.786Z,51.08
2019-05-01T03:30:45.647Z,51.14
2019-05-01T03:35:53.222Z,50.86
2019-05-01T03:40:57.853Z,50.74
2019-05-01T03:46:02.912Z,50.09
2019-05-01T03:51:07.760Z,49.41
2019-05-01T03:56:12.358Z,49.64
2019-05-01T04:01:35.327Z,49.68
2019-05-01T04:06:39.958Z,50.08
2019-05-01T04:11:44.716Z,46.94
2019-05-01T04:16:51.727Z,43.79
2019-05-01T04:21:59.807Z,40.77
2019-05-01T04:27:06.094Z,37.81
2019-05-01T04:32:12.551Z,35.53
2019-05-01T04:37:18.840Z,35.53
2019-05-01T04:42:23.741Z,34.29
2019-05-01T04:47:28.435Z,38.23
2019-05-01T04:52:33.270Z,40.21
2019-05-01T04:57:38.003Z,41.75
2019-05-01T05:03:04.134Z,42.45
2019-05-01T05:07:59.782Z,44.08
2019-05-01T05:13:06.554Z,43.88
2019-05-01T05:18:11.653Z,41.96
2019-05-01T05:23:16.876Z,36.60
2019-05-01T05:28:21.877Z,33.20
2019-05-01T05:33:29.132Z,32.47
2019-05-01T05:38:35.980Z,29.08
2019-05-01T05:43:40.974Z,29.08
2019-05-01T05:48:45.781Z,29.70
2019-05-01T05:53:57.899Z,28.90
2019-05-01T05:59:05.807Z,27.68
2019-05-01T06:04:22.866Z,28.37
2019-05-01T06:09:31.972Z,26.83
2019-05-01T06:14:45.018Z,29.11
2019-05-01T06:20:07.590Z,27.94
2019-05-01T06:25:25.790Z,29.49
2019-05-01T06:30:30.993Z,27.72
2019-05-01T06:35:38.111Z,27.19
2019-05-01T06:40:45.442Z,28.97
2019-05-01T06:45:52.694Z,27.05
2019-05-01T06:50:59.126Z,27.90
2019-05-01T06:56:03.774Z,26.95
2019-05-01T07:01:08.565Z,26.85
2019-05-01T07:06:14.407Z,25.99
2019-05-01T07:11:19.433Z,26.37
2019-05-01T07:16:24.028Z,27.50
2019-05-01T07:21:32.626Z,26.35
2019-05-01T07:26:35.143Z,26.03
2019-05-01T07:31:40.074Z,25.46
2019-05-01T07:36:45.699Z,25.75
2019-05-01T07:41:51.245Z,25.70
2019-05-01T07:46:57.500Z,25.64
2019-05-01T07:52:02.288Z,25.01
2019-05-01T07:57:07.081Z,23.79
2019-05-01T08:02:13.584Z,23.55
2019-05-01T08:07:18.328Z,24.18
2019-05-01T08:12:23.990Z,23.44
2019-05-01T08:17:30.827Z,25.14
2019-05-01T08:22:38.907Z,23.65
2019-05-01T08:27:45.287Z,23.97
2019-05-01T08:32:57.610Z,25.05
2019-05-01T08:38:02.401Z,25.61
2019-05-01T08:43:07.140Z,24.01
2019-05-01T08:48:13.426Z,24.28
2019-05-01T08:53:22.090Z,27.14
2019-05-01T08:58:25.759Z,28.28
2019-05-01T09:03:30.353Z,30.03
2019-05-01T09:08:34.992Z,30.35
2019-05-01T09:13:39.503Z,31.03
2019-05-01T09:18:44.121Z,31.43
2019-05-01T09:23:51.429Z,30.02
2019-05-01T09:29:02.499Z,28.15
2019-05-01T09:34:09.447Z,30.08
2019-05-01T09:39:15.259Z,30.04
2019-05-01T09:44:19.891Z,31.94
2019-05-01T09:49:24.640Z,30.91
2019-05-01T09:54:33.572Z,30.60
2019-05-01T09:59:38.193Z,28.89
2019-05-01T10:04:42.845Z,27.12
2019-05-01T10:09:52.215Z,29.61
2019-05-01T10:14:53.858Z,28.40
2019-05-01T10:19:58.403Z,29.55
2019-05-01T10:25:03.176Z,29.67
2019-05-01T10:30:26.748Z,29.86
2019-05-01T10:35:42.983Z,28.69
2019-05-01T10:40:45.321Z,28.69
2019-05-01T10:45:49.938Z,32.39
2019-05-01T10:50:54.627Z,32.57
2019-05-01T10:55:59.212Z,32.03
2019-05-01T11:01:20.361Z,30.52
2019-05-01T11:06:25.081Z,31.21
2019-05-01T11:11:29.714Z,32.96
2019-05-01T11:16:34.380Z,32.03
2019-05-01T11:21:38.871Z,32.44
2019-05-01T11:26:43.504Z,32.26
2019-05-01T11:32:01.761Z,33.04
2019-05-01T11:37:24.184Z,33.11
2019-05-01T11:42:29.055Z,33.33
2019-05-01T11:47:33.685Z,33.01
2019-05-01T11:52:38.402Z,33.45
2019-05-01T11:57:43.017Z,33.14
2019-05-01T12:02:47.763Z,33.10
2019-05-01T12:07:52.330Z,33.35
2019-05-01T12:12:56.881Z,31.18
2019-05-01T12:18:02.490Z,30.90
2019-05-01T12:23:07.226Z,31.55
2019-05-01T12:28:11.985Z,31.71
2019-05-01T12:33:16.581Z,32.05
2019-05-01T12:38:21.158Z,31.72
2019-05-01T12:43:26.713Z,34.06
2019-05-01T12:48:31.316Z,35.04
2019-05-01T12:53:40.258Z,35.41
2019-05-01T12:58:44.937Z,34.98
2019-05-01T13:03:49.564Z,34.70
2019-05-01T13:08:54.160Z,35.56
2019-05-01T13:13:58.821Z,35.24
2019-05-01T13:19:03.384Z,34.82
2019-05-01T13:24:08.027Z,35.26
2019-05-01T13:29:17.247Z,34.16
2019-05-01T13:34:22.089Z,34.21
2019-05-01T13:39:26.647Z,33.88
2019-05-01T13:44:38.211Z,33.95
2019-05-01T13:49:42.890Z,33.95
2019-05-01T13:54:47.588Z,34.75
2019-05-01T13:59:52.346Z,35.11
2019-05-01T14:04:56.905Z,36.05
2019-05-01T14:10:01.657Z,35.71
2019-05-01T14:15:10.097Z,36.36
2019-05-01T14:20:19.066Z,37.07
2019-05-01T14:25:24.525Z,37.74
2019-05-01T14:30:29.112Z,40.00
2019-05-01T14:35:33.756Z,39.42
2019-05-01T14:40:38.317Z,38.61
2019-05-01T14:45:42.956Z,39.56
2019-05-01T14:50:47.591Z,39.59
2019-05-01T14:55:52.166Z,39.78
2019-05-01T15:00:56.824Z,39.83
2019-05-01T15:06:01.437Z,40.79
2019-05-01T15:11:06.108Z,41.69
2019-05-01T15:16:12.413Z,42.02
2019-05-01T15:21:18.033Z,42.51
2019-05-01T15:26:22.535Z,42.47
2019-05-01T15:31:27.263Z,42.06
2019-05-01T15:36:34.695Z,41.09
2019-05-01T15:41:47.128Z,41.04
2019-05-01T15:46:51.769Z,41.61
2019-05-01T15:51:56.483Z,41.27
2019-05-01T15:57:01.024Z,40.99
2019-05-01T16:02:05.796Z,40.92
2019-05-01T16:07:10.410Z,42.72
2019-05-01T16:12:16.681Z,43.16
2019-05-01T16:17:21.329Z,43.79
2019-05-01T16:22:25.996Z,44.24
2019-05-01T16:27:30.539Z,45.03
2019-05-01T16:32:35.245Z,45.96
2019-05-01T16:37:39.962Z,46.77
2019-05-01T16:42:44.443Z,47.43
2019-05-01T16:47:49.143Z,48.37
2019-05-01T16:52:53.852Z,48.79
2019-05-01T16:57:58.537Z,48.84
2019-05-01T17:03:04.730Z,50.08
2019-05-01T17:08:13.797Z,51.56
2019-05-01T17:13:18.500Z,53.37
2019-05-01T17:18:23.604Z,54.61
2019-05-01T17:23:28.256Z,56.01
2019-05-01T17:28:32.988Z,56.59
2019-05-01T17:33:37.664Z,57.30
2019-05-01T17:38:49.205Z,57.50
2019-05-01T17:43:49.353Z,58.06
2019-05-01T17:48:57.807Z,58.18
2019-05-01T17:54:03.862Z,58.58
2019-05-01T17:59:10.897Z,59.55
2019-05-01T18:04:17.206Z,60.08
2019-05-01T18:09:22.320Z,60.83
2019-05-01T18:14:27.087Z,61.42
2019-05-01T18:19:31.657Z,61.89
2019-05-01T18:24:41.003Z,61.65
2019-05-01T18:29:48.594Z,61.78
2019-05-01T18:34:53.357Z,61.38
2019-05-01T18:39:58.433Z,60.72
2019-05-01T18:45:05.489Z,60.48
2019-05-01T18:50:10.205Z,60.05
2019-05-01T18:55:14.800Z,59.61
2019-05-01T19:00:19.603Z,59.08
2019-05-01T19:05:24.398Z,59.37
2019-05-01T19:10:29.261Z,59.76
2019-05-01T19:15:34.130Z,59.75
2019-05-01T19:20:39.190Z,60.14
2019-05-01T19:25:44.179Z,60.45
2019-05-01T19:30:48.896Z,60.38
2019-05-01T19:35:53.752Z,60.43
2019-05-01T19:40:58.543Z,60.11
2019-05-01T19:46:03.249Z,61.56
2019-05-01T19:51:08.073Z,63.00
2019-05-01T19:56:16.727Z,65.86
2019-05-01T20:01:19.126Z,65.32
2019-05-01T20:06:23.863Z,65.57
2019-05-01T20:11:28.842Z,65.67
2019-05-01T20:16:33.554Z,65.53
2019-05-01T20:21:38.182Z,65.32
2019-05-01T20:26:42.819Z,65.02
2019-05-01T20:31:50.675Z,64.43
2019-05-01T20:36:53.836Z,63.86
2019-05-01T20:41:58.537Z,63.06
2019-05-01T20:47:03.909Z,63.07
2019-05-01T20:52:08.698Z,63.31
2019-05-01T20:57:20.744Z,62.10
2019-05-01T21:02:21.186Z,62.59
2019-05-01T21:07:31.774Z,62.02
2019-05-01T21:12:36.400Z,62.96
2019-05-01T21:17:44.192Z,63.58
2019-05-01T21:22:47.324Z,64.13
2019-05-01T21:27:51.963Z,64.62
2019-05-01T21:32:59.038Z,65.00
2019-05-01T21:38:02.937Z,65.32
2019-05-01T21:43:07.606Z,64.31
2019-05-01T21:48:13.341Z,65.80
2019-05-01T21:53:18.136Z,66.52
2019-05-01T21:58:26.340Z,66.73
2019-05-01T22:03:29.180Z,68.03
2019-05-01T22:08:34.526Z,67.55
2019-05-01T22:13:40.279Z,68.65
2019-05-01T22:18:47.104Z,70.17
2019-05-01T22:23:53.308Z,70.54
2019-05-01T22:28:59.590Z,70.78
2019-05-01T22:34:23.807Z,71.71
2019-05-01T22:39:30.093Z,72.35
2019-05-01T22:44:34.854Z,71.39
2019-05-01T22:49:39.642Z,73.05
2019-05-01T22:54:44.807Z,73.88
2019-05-01T22:59:50.658Z,73.46
2019-05-01T23:04:55.582Z,74.98
2019-05-01T23:10:03.299Z,75.46
2019-05-01T23:15:10.306Z,75.15
2019-05-01T23:20:15.833Z,74.14
2019-05-01T23:25:21.887Z,73.87
2019-05-01T23:30:26.586Z,73.47
2019-05-01T23:35:32.153Z,73.83
2019-05-01T23:40:36.807Z,73.34
2019-05-01T23:45:42.429Z,74.46
2019-05-01T23:50:47.124Z,75.11
2019-05-01T23:55:54.627Z,73.50
